createdAt,value
2023-03-27T00:00:49.140Z,6.72
2023-03-27T00:03:15.426Z,6.69
2023-03-27T00:05:41.591Z,6.66
2023-03-27T00:08:07.720Z,6.61
2023-03-27T00:10:33.907Z,6.57
2023-03-27T00:13:00.047Z,6.55
2023-03-27T00:15:26.237Z,6.55
2023-03-27T00:17:52.442Z,6.55
2023-03-27T00:20:18.596Z,6.52
2023-03-27T00:22:44.788Z,6.42
2023-03-27T00:25:10.917Z,6.29
2023-03-27T00:27:37.152Z,6.13
2023-03-27T00:30:03.332Z,6.06
2023-03-27T00:32:29.539Z,5.93
2023-03-27T00:34:55.712Z,5.83
2023-03-27T00:37:21.852Z,5.78
2023-03-27T00:39:48.062Z,5.73
2023-03-27T00:42:14.208Z,5.68
2023-03-27T00:44:40.361Z,5.67
2023-03-27T00:47:06.546Z,5.63
2023-03-27T00:49:32.715Z,5.65
2023-03-27T00:51:58.861Z,5.67
2023-03-27T00:54:24.999Z,5.66
2023-03-27T00:56:51.241Z,5.61
2023-03-27T00:59:17.458Z,5.56
2023-03-27T01:01:43.693Z,5.51
2023-03-27T01:04:09.942Z,5.50
2023-03-27T01:06:36.157Z,5.48
2023-03-27T01:09:02.331Z,5.44
2023-03-27T01:11:28.544Z,5.41
2023-03-27T01:13:54.749Z,5.41
2023-03-27T01:16:20.914Z,5.43
2023-03-27T01:18:47.127Z,5.43
2023-03-27T01:21:13.320Z,5.47
2023-03-27T01:23:58.849Z,5.49
2023-03-27T01:26:36.354Z,5.48
2023-03-27T01:29:03.461Z,5.50
2023-03-27T01:31:29.597Z,5.48
2023-03-27T01:33:55.839Z,5.48
2023-03-27T01:36:22.017Z,5.45
2023-03-27T01:38:48.177Z,5.42
2023-03-27T01:41:14.318Z,5.41
2023-03-27T01:43:40.493Z,5.15
2023-03-27T01:46:06.684Z,5.42
2023-03-27T01:48:32.862Z,5.46
2023-03-27T01:50:59.193Z,5.43
2023-03-27T01:53:25.409Z,5.44
2023-03-27T01:55:51.531Z,5.43
2023-03-27T01:58:17.718Z,5.35
2023-03-27T02:00:52.109Z,5.33
2023-03-27T02:03:19.572Z,5.31
2023-03-27T02:05:45.777Z,5.26
2023-03-27T02:08:11.935Z,5.21
2023-03-27T02:10:38.078Z,5.13
2023-03-27T02:13:04.226Z,5.09
2023-03-27T02:15:30.335Z,5.07
2023-03-27T02:17:56.528Z,5.04
2023-03-27T02:20:22.704Z,4.99
2023-03-27T02:22:48.903Z,4.95
2023-03-27T02:25:15.116Z,4.92
2023-03-27T02:27:41.300Z,4.85
2023-03-27T02:30:07.466Z,4.83
2023-03-27T02:34:59.865Z,4.67
2023-03-27T02:37:32.392Z,4.60
2023-03-27T02:39:59.447Z,4.53
2023-03-27T02:42:25.604Z,4.50
2023-03-27T02:44:51.876Z,4.39
2023-03-27T02:47:18.074Z,4.32
2023-03-27T02:49:44.255Z,4.27
2023-03-27T02:52:10.417Z,4.22
2023-03-27T02:54:36.575Z,4.16
2023-03-27T02:57:02.713Z,4.12
2023-03-27T02:59:28.870Z,4.06
2023-03-27T03:01:55.127Z,4.02
2023-03-27T03:04:21.448Z,3.95
2023-03-27T03:06:47.625Z,3.88
2023-03-27T03:09:13.783Z,3.73
2023-03-27T03:11:40.009Z,3.64
2023-03-27T03:14:06.123Z,3.48
2023-03-27T03:16:32.292Z,3.37
2023-03-27T03:18:58.460Z,3.30
2023-03-27T03:21:24.607Z,3.26
2023-03-27T03:23:57.537Z,3.24
2023-03-27T03:26:25.390Z,3.20
2023-03-27T03:29:00.839Z,3.20
2023-03-27T03:31:27.824Z,3.18
2023-03-27T03:33:54.158Z,3.15
2023-03-27T03:36:20.318Z,3.03
2023-03-27T03:38:46.441Z,3.02
2023-03-27T03:41:12.707Z,3.07
2023-03-27T03:43:38.860Z,3.02
2023-03-27T03:46:05.030Z,3.05
2023-03-27T03:48:31.175Z,3.04
2023-03-27T03:50:57.461Z,2.97
2023-03-27T03:53:23.810Z,2.95
2023-03-27T03:55:50.810Z,2.90
2023-03-27T03:58:16.973Z,2.94
2023-03-27T04:00:43.079Z,2.91
2023-03-27T04:03:09.404Z,2.85
2023-03-27T04:05:35.612Z,2.84
2023-03-27T04:08:01.797Z,2.88
2023-03-27T04:10:27.995Z,2.88
2023-03-27T04:12:54.174Z,2.83
2023-03-27T04:15:20.373Z,2.84
2023-03-27T04:17:46.623Z,2.85
2023-03-27T04:20:12.872Z,2.88
2023-03-27T04:22:39.034Z,2.89
2023-03-27T04:25:05.191Z,2.88
2023-03-27T04:27:31.346Z,2.84
2023-03-27T04:29:57.541Z,2.80
2023-03-27T04:32:23.721Z,2.78
2023-03-27T04:34:49.885Z,2.70
2023-03-27T04:37:16.089Z,2.79
2023-03-27T04:39:42.250Z,2.70
2023-03-27T04:42:08.403Z,2.68
2023-03-27T04:44:34.612Z,2.70
2023-03-27T04:47:00.882Z,2.70
2023-03-27T04:49:27.186Z,2.77
2023-03-27T04:51:53.347Z,2.77
2023-03-27T04:54:19.465Z,2.83
2023-03-27T04:56:45.667Z,2.72
2023-03-27T04:59:11.913Z,2.70
2023-03-27T05:01:38.154Z,2.71
2023-03-27T05:04:04.392Z,2.70
2023-03-27T05:06:30.637Z,2.64
2023-03-27T05:08:56.783Z,2.54
2023-03-27T05:11:22.947Z,2.55
2023-03-27T05:13:49.085Z,2.57
2023-03-27T05:16:15.280Z,2.58
2023-03-27T05:18:42.001Z,2.57
2023-03-27T05:21:08.305Z,2.52
2023-03-27T05:23:34.733Z,2.43
2023-03-27T05:26:01.070Z,2.48
2023-03-27T05:28:27.395Z,2.50
2023-03-27T05:30:53.633Z,2.46
2023-03-27T05:33:19.917Z,2.41
2023-03-27T05:35:46.063Z,2.40
2023-03-27T05:38:12.356Z,2.35
2023-03-27T05:40:38.570Z,2.50
2023-03-27T05:43:04.691Z,2.54
2023-03-27T05:45:30.906Z,2.51
2023-03-27T05:47:57.212Z,2.60
2023-03-27T05:50:23.422Z,2.59
2023-03-27T05:52:49.597Z,2.68
2023-03-27T05:55:15.784Z,2.69
2023-03-27T05:57:41.979Z,2.68
2023-03-27T06:00:08.167Z,2.68
2023-03-27T06:02:34.659Z,2.73
2023-03-27T06:05:00.886Z,2.75
2023-03-27T06:07:27.046Z,2.79
2023-03-27T06:09:53.227Z,2.84
2023-03-27T06:12:19.420Z,2.86
2023-03-27T06:14:45.607Z,2.94
2023-03-27T06:17:11.788Z,3.06
2023-03-27T06:19:38.019Z,3.07
2023-03-27T06:22:04.224Z,3.08
2023-03-27T06:24:30.397Z,3.13
2023-03-27T06:26:56.599Z,3.21
2023-03-27T06:29:22.778Z,3.37
2023-03-27T06:31:48.990Z,3.52
2023-03-27T06:34:15.254Z,3.70
2023-03-27T06:36:41.481Z,3.99
2023-03-27T06:39:07.623Z,4.01
2023-03-27T06:41:33.830Z,4.11
2023-03-27T06:44:00.015Z,4.15
2023-03-27T06:46:35.307Z,4.50
2023-03-27T06:49:09.242Z,4.56
2023-03-27T06:51:35.425Z,4.63
2023-03-27T06:54:01.566Z,4.68
2023-03-27T06:56:27.719Z,4.61
2023-03-27T06:58:53.876Z,4.60
2023-03-27T07:01:20.122Z,4.56
2023-03-27T07:03:46.485Z,4.39
2023-03-27T07:06:12.665Z,4.20
2023-03-27T07:08:38.885Z,4.20
2023-03-27T07:11:11.259Z,4.35
2023-03-27T07:13:38.168Z,4.83
2023-03-27T07:16:04.469Z,5.29
2023-03-27T07:18:30.761Z,5.57
2023-03-27T07:20:57.189Z,5.59
2023-03-27T07:23:23.487Z,5.74
2023-03-27T07:25:49.662Z,5.92
2023-03-27T07:28:15.837Z,6.07
2023-03-27T07:30:41.965Z,6.36
2023-03-27T07:33:08.412Z,6.53
2023-03-27T07:35:34.768Z,6.22
2023-03-27T07:38:00.958Z,6.69
2023-03-27T07:40:37.268Z,6.57
2023-03-27T07:43:05.444Z,6.87
2023-03-27T07:45:31.655Z,7.03
2023-03-27T07:47:57.866Z,7.06
2023-03-27T07:50:24.126Z,7.46
2023-03-27T07:52:50.292Z,7.65
2023-03-27T07:55:16.452Z,7.90
2023-03-27T07:57:55.410Z,7.25
2023-03-27T08:00:26.473Z,6.79
2023-03-27T08:02:52.753Z,6.73
2023-03-27T08:05:19.103Z,6.41
2023-03-27T08:07:45.312Z,6.23
2023-03-27T08:10:11.458Z,6.58
2023-03-27T08:12:37.603Z,6.85
2023-03-27T08:15:03.828Z,6.88
2023-03-27T08:17:30.110Z,7.10
2023-03-27T08:19:56.340Z,7.56
2023-03-27T08:22:22.476Z,7.58
2023-03-27T08:24:48.648Z,8.24
2023-03-27T08:27:14.802Z,8.95
2023-03-27T08:29:40.984Z,9.30
2023-03-27T08:32:10.254Z,9.22
2023-03-27T08:34:36.463Z,10.02
2023-03-27T08:37:02.661Z,8.44
2023-03-27T08:39:28.885Z,8.29
2023-03-27T08:41:55.061Z,8.13
2023-03-27T08:44:21.261Z,8.41
2023-03-27T08:46:47.494Z,7.49
2023-03-27T08:49:13.683Z,7.04
2023-03-27T08:51:39.911Z,7.02
2023-03-27T08:54:06.084Z,7.39
2023-03-27T08:56:32.203Z,8.63
2023-03-27T08:58:58.364Z,9.30
2023-03-27T09:01:24.524Z,9.56
2023-03-27T09:03:50.810Z,8.71
2023-03-27T09:06:17.107Z,8.54
2023-03-27T09:08:43.309Z,8.36
2023-03-27T09:11:09.442Z,8.65
2023-03-27T09:13:35.840Z,11.36
2023-03-27T09:16:02.063Z,12.23
2023-03-27T09:18:28.266Z,12.77
2023-03-27T09:20:54.448Z,13.62
2023-03-27T09:23:21.123Z,13.87
2023-03-27T09:25:47.439Z,13.76
2023-03-27T09:28:13.626Z,13.72
2023-03-27T09:30:39.806Z,13.95
2023-03-27T09:33:06.051Z,14.02
2023-03-27T09:35:32.344Z,12.58
2023-03-27T09:37:58.623Z,12.56
2023-03-27T09:40:24.869Z,13.63
2023-03-27T09:42:51.041Z,14.19
2023-03-27T09:45:17.185Z,14.46
2023-03-27T09:47:43.393Z,13.63
2023-03-27T09:50:09.561Z,12.46
2023-03-27T09:52:35.769Z,11.64
2023-03-27T09:55:01.987Z,11.00
2023-03-27T09:57:28.312Z,10.09
2023-03-27T09:59:54.535Z,9.29
2023-03-27T10:02:20.679Z,9.62
2023-03-27T10:04:46.856Z,9.10
2023-03-27T10:07:13.008Z,8.83
2023-03-27T10:09:39.189Z,8.25
2023-03-27T10:12:05.354Z,8.11
2023-03-27T10:14:31.553Z,7.91
2023-03-27T10:16:57.772Z,7.98
2023-03-27T10:19:23.992Z,8.08
2023-03-27T10:21:50.196Z,7.88
2023-03-27T10:24:16.400Z,7.87
2023-03-27T10:26:42.584Z,7.25
2023-03-27T10:29:08.755Z,6.97
2023-03-27T10:31:34.972Z,6.71
2023-03-27T10:34:01.173Z,6.99
2023-03-27T10:36:27.328Z,7.94
2023-03-27T10:38:53.498Z,9.43
2023-03-27T10:41:28.594Z,10.53
2023-03-27T10:43:55.424Z,10.22
2023-03-27T10:46:21.774Z,10.15
2023-03-27T10:48:47.974Z,10.96
2023-03-27T10:51:14.186Z,11.43
2023-03-27T10:53:40.403Z,12.22
2023-03-27T10:56:06.611Z,13.00
2023-03-27T10:58:32.797Z,12.88
2023-03-27T11:01:00.306Z,12.56
2023-03-27T11:03:26.860Z,11.39
2023-03-27T11:05:53.060Z,11.14
2023-03-27T11:08:19.203Z,10.39
2023-03-27T11:10:45.402Z,10.42
2023-03-27T11:13:11.582Z,10.40
2023-03-27T11:15:37.791Z,10.55
2023-03-27T11:18:04.007Z,9.89
2023-03-27T11:20:30.230Z,9.78
2023-03-27T11:22:56.399Z,9.20
2023-03-27T11:25:22.561Z,8.85
2023-03-27T11:27:48.716Z,8.91
2023-03-27T11:30:14.854Z,8.61
2023-03-27T11:32:41.094Z,8.48
2023-03-27T11:35:07.296Z,8.30
2023-03-27T11:37:33.450Z,8.19
2023-03-27T11:39:59.623Z,8.17
2023-03-27T11:42:25.743Z,8.00
2023-03-27T11:44:51.934Z,7.61
2023-03-27T11:47:18.109Z,7.33
2023-03-27T11:49:44.309Z,7.51
2023-03-27T11:52:10.498Z,7.87
2023-03-27T11:54:36.646Z,8.85
2023-03-27T11:57:02.919Z,10.15
2023-03-27T11:59:29.118Z,11.30
2023-03-27T12:01:55.316Z,12.00
2023-03-27T12:04:21.562Z,13.01
2023-03-27T12:06:47.794Z,13.16
2023-03-27T12:09:15.088Z,13.30
2023-03-27T12:11:41.227Z,15.03
2023-03-27T12:14:17.555Z,14.74
2023-03-27T12:16:44.520Z,14.13
2023-03-27T12:19:21.164Z,13.82
2023-03-27T12:21:53.500Z,14.08
2023-03-27T12:24:19.688Z,14.22
2023-03-27T12:26:45.833Z,15.04
2023-03-27T12:29:23.056Z,15.22
2023-03-27T12:31:50.511Z,15.56
2023-03-27T12:34:16.705Z,15.85
2023-03-27T12:36:42.839Z,15.37
2023-03-27T12:39:09.036Z,15.49
2023-03-27T12:41:35.210Z,15.53
2023-03-27T12:44:01.416Z,15.43
2023-03-27T12:46:27.671Z,15.86
2023-03-27T12:48:53.879Z,13.97
2023-03-27T12:51:20.124Z,12.92
2023-03-27T12:53:46.327Z,12.52
2023-03-27T12:56:16.168Z,12.12
2023-03-27T12:58:42.375Z,10.75
2023-03-27T13:01:08.657Z,9.81
2023-03-27T13:03:34.897Z,9.01
2023-03-27T13:06:01.396Z,8.49
2023-03-27T13:08:27.591Z,7.99
2023-03-27T13:10:53.706Z,7.38
2023-03-27T13:13:20.074Z,7.49
2023-03-27T13:15:46.312Z,7.57
2023-03-27T13:18:12.554Z,7.35
2023-03-27T13:20:38.766Z,7.21
2023-03-27T13:23:04.970Z,7.44
2023-03-27T13:25:31.108Z,7.78
2023-03-27T13:27:57.318Z,8.27
2023-03-27T13:30:23.533Z,8.97
2023-03-27T13:32:49.790Z,9.04
2023-03-27T13:35:16.049Z,10.31
2023-03-27T13:37:42.271Z,11.25
2023-03-27T13:40:08.517Z,11.41
2023-03-27T13:42:34.723Z,11.94
2023-03-27T13:45:00.900Z,12.37
2023-03-27T13:47:27.164Z,12.84
2023-03-27T13:49:53.379Z,12.31
2023-03-27T13:52:19.575Z,10.89
2023-03-27T13:54:45.794Z,10.11
2023-03-27T13:57:12.169Z,10.36
2023-03-27T13:59:38.418Z,10.35
2023-03-27T14:02:04.734Z,9.89
2023-03-27T14:04:31.176Z,9.76
2023-03-27T14:06:57.419Z,9.81
2023-03-27T14:09:23.612Z,9.81
2023-03-27T14:11:49.766Z,9.43
2023-03-27T14:14:15.942Z,8.99
2023-03-27T14:16:42.167Z,7.82
2023-03-27T14:19:08.296Z,7.00
2023-03-27T14:21:38.888Z,6.77
2023-03-27T14:24:05.353Z,6.84
2023-03-27T14:26:31.525Z,6.95
2023-03-27T14:28:57.717Z,6.91
2023-03-27T14:31:24.000Z,6.86
2023-03-27T14:33:50.183Z,6.94
2023-03-27T14:36:16.363Z,7.13
2023-03-27T14:38:42.553Z,8.33
2023-03-27T14:41:08.727Z,9.26
2023-03-27T14:43:34.854Z,9.69
2023-03-27T14:46:01.219Z,9.69
2023-03-27T14:48:27.635Z,10.17
2023-03-27T14:50:53.791Z,11.02
2023-03-27T14:53:19.991Z,11.38
2023-03-27T14:55:46.118Z,11.69
2023-03-27T14:58:12.308Z,11.70
2023-03-27T15:00:38.437Z,11.64
2023-03-27T15:03:04.647Z,12.09
2023-03-27T15:05:30.829Z,12.89
2023-03-27T15:07:57.050Z,13.57
2023-03-27T15:10:23.248Z,14.48
2023-03-27T15:12:49.481Z,14.37
2023-03-27T15:15:15.687Z,14.86
2023-03-27T15:17:41.866Z,15.35
2023-03-27T15:20:08.064Z,15.19
2023-03-27T15:22:34.345Z,15.36
2023-03-27T15:25:00.462Z,15.29
2023-03-27T15:27:26.679Z,14.83
2023-03-27T15:29:53.045Z,15.38
2023-03-27T15:32:19.241Z,15.23
2023-03-27T15:34:45.456Z,16.04
2023-03-27T15:37:11.624Z,15.58
2023-03-27T15:39:37.816Z,15.76
2023-03-27T15:42:04.026Z,15.65
2023-03-27T15:44:30.161Z,15.53
2023-03-27T15:46:56.436Z,15.35
2023-03-27T15:49:22.622Z,14.52
2023-03-27T15:51:48.763Z,15.26
2023-03-27T15:54:14.870Z,15.41
2023-03-27T15:56:41.101Z,13.75
2023-03-27T15:59:07.314Z,12.29
2023-03-27T16:01:33.476Z,10.83
2023-03-27T16:04:00.608Z,10.12
2023-03-27T16:06:28.679Z,9.75
2023-03-27T16:08:54.882Z,9.57
2023-03-27T16:11:21.071Z,9.56
2023-03-27T16:13:47.237Z,9.42
2023-03-27T16:16:13.375Z,9.34
2023-03-27T16:18:39.562Z,9.32
2023-03-27T16:21:05.733Z,9.38
2023-03-27T16:23:31.864Z,9.36
2023-03-27T16:25:58.351Z,9.30
2023-03-27T16:28:24.747Z,9.24
2023-03-27T16:30:50.914Z,9.29
2023-03-27T16:33:17.336Z,9.27
2023-03-27T16:35:43.740Z,9.12
2023-03-27T16:38:09.941Z,9.00
2023-03-27T16:40:36.114Z,8.87
2023-03-27T16:43:02.296Z,8.73
2023-03-27T16:45:28.477Z,8.60
2023-03-27T16:47:54.798Z,8.37
2023-03-27T16:50:21.051Z,8.06
2023-03-27T16:52:47.192Z,7.90
2023-03-27T16:55:13.299Z,7.68
2023-03-27T16:57:40.238Z,7.60
2023-03-27T17:00:06.402Z,7.51
2023-03-27T17:02:34.672Z,7.47
2023-03-27T17:05:01.386Z,7.46
2023-03-27T17:07:27.632Z,7.34
2023-03-27T17:09:53.893Z,7.41
2023-03-27T17:12:20.098Z,7.48
2023-03-27T17:14:46.240Z,7.62
2023-03-27T17:17:12.472Z,7.67
2023-03-27T17:19:38.633Z,7.70
2023-03-27T17:22:04.834Z,7.70
2023-03-27T17:24:31.295Z,7.67
2023-03-27T17:26:57.448Z,7.67
2023-03-27T17:29:23.593Z,7.56
2023-03-27T17:31:49.882Z,7.48
2023-03-27T17:34:16.157Z,7.39
2023-03-27T17:36:47.475Z,7.31
2023-03-27T17:39:18.641Z,7.27
2023-03-27T17:41:44.803Z,7.22
2023-03-27T17:44:11.141Z,7.21
2023-03-27T17:46:37.439Z,7.16
2023-03-27T17:49:03.652Z,7.16
2023-03-27T17:51:33.047Z,7.06
2023-03-27T17:53:59.229Z,7.07
2023-03-27T17:56:25.439Z,7.03
2023-03-27T17:58:51.717Z,6.96
2023-03-27T18:01:17.872Z,6.88
2023-03-27T18:03:44.152Z,6.95
2023-03-27T18:06:11.063Z,6.92
2023-03-27T18:08:37.280Z,6.82
2023-03-27T18:11:03.486Z,6.56
2023-03-27T18:13:30.016Z,6.32
2023-03-27T18:15:56.388Z,6.16
2023-03-27T18:18:22.706Z,6.03
2023-03-27T18:20:48.997Z,5.95
2023-03-27T18:23:15.130Z,5.91
2023-03-27T18:25:41.285Z,5.88
2023-03-27T18:28:07.440Z,5.86
2023-03-27T18:30:33.668Z,5.80
2023-03-27T18:33:00.343Z,5.71
2023-03-27T18:35:26.537Z,5.67
2023-03-27T18:37:53.309Z,5.68
2023-03-27T18:40:19.516Z,5.65
2023-03-27T18:42:45.746Z,5.61
2023-03-27T18:45:12.039Z,5.57
2023-03-27T18:47:38.218Z,5.47
2023-03-27T18:50:05.441Z,5.43
2023-03-27T18:52:31.564Z,5.54
2023-03-27T18:54:57.692Z,5.56
2023-03-27T18:57:23.977Z,5.59
2023-03-27T18:59:50.178Z,5.54
2023-03-27T19:02:16.384Z,5.52
2023-03-27T19:04:42.581Z,5.48
2023-03-27T19:07:08.857Z,5.41
2023-03-27T19:09:41.272Z,5.35
2023-03-27T19:12:07.999Z,5.26
2023-03-27T19:14:34.157Z,5.13
2023-03-27T19:17:00.365Z,5.01
2023-03-27T19:19:26.479Z,4.87
2023-03-27T19:21:52.647Z,4.79
2023-03-27T19:24:18.860Z,4.67
2023-03-27T19:26:45.002Z,4.63
2023-03-27T19:29:11.116Z,4.61
2023-03-27T19:31:37.367Z,4.68
2023-03-27T19:34:03.549Z,4.67
2023-03-27T19:36:30.370Z,4.53
2023-03-27T19:38:56.517Z,4.39
2023-03-27T19:41:22.708Z,4.30
2023-03-27T19:43:48.840Z,4.18
2023-03-27T19:46:16.647Z,4.10
2023-03-27T19:48:43.138Z,3.96
2023-03-27T19:51:09.306Z,3.90
2023-03-27T19:53:35.496Z,3.90
2023-03-27T19:56:01.664Z,3.76
2023-03-27T19:58:27.808Z,3.74
2023-03-27T20:00:53.982Z,3.77
2023-03-27T20:03:20.319Z,3.67
2023-03-27T20:05:46.639Z,3.66
2023-03-27T20:08:12.803Z,3.66
2023-03-27T20:10:38.924Z,3.69
2023-03-27T20:13:07.530Z,3.67
2023-03-27T20:15:33.764Z,3.67
2023-03-27T20:18:00.052Z,3.64
2023-03-27T20:20:26.390Z,3.61
2023-03-27T20:22:57.607Z,3.60
2023-03-27T20:25:24.229Z,3.56
2023-03-27T20:27:50.396Z,3.48
2023-03-27T20:30:16.596Z,3.46
2023-03-27T20:32:42.802Z,3.39
2023-03-27T20:35:20.755Z,3.27
2023-03-27T20:37:49.513Z,3.21
2023-03-27T20:40:15.821Z,3.17
2023-03-27T20:42:42.030Z,3.14
2023-03-27T20:45:08.186Z,3.04
2023-03-27T20:47:34.389Z,3.04
2023-03-27T20:50:00.557Z,3.00
2023-03-27T20:52:26.683Z,3.03
2023-03-27T20:54:52.852Z,2.99
2023-03-27T20:57:19.022Z,2.96
2023-03-27T20:59:47.441Z,2.95
2023-03-27T21:02:13.899Z,2.91
2023-03-27T21:04:40.082Z,2.87
2023-03-27T21:07:06.249Z,2.76
2023-03-27T21:09:32.374Z,2.75
2023-03-27T21:11:58.523Z,2.73
2023-03-27T21:14:24.681Z,2.68
2023-03-27T21:16:50.887Z,2.65
2023-03-27T21:19:17.196Z,2.63
2023-03-27T21:21:43.436Z,2.56
2023-03-27T21:24:09.652Z,2.49
2023-03-27T21:26:35.846Z,2.39
2023-03-27T21:29:02.016Z,2.32
2023-03-27T21:31:28.233Z,2.29
2023-03-27T21:33:54.373Z,2.28
2023-03-27T21:36:20.567Z,2.25
2023-03-27T21:38:46.742Z,2.16
2023-03-27T21:41:12.857Z,2.13
2023-03-27T21:43:39.047Z,2.24
2023-03-27T21:46:05.267Z,2.27
2023-03-27T21:48:31.486Z,2.35
2023-03-27T21:50:57.652Z,2.37
2023-03-27T21:53:23.781Z,2.36
2023-03-27T21:55:49.925Z,2.44
2023-03-27T21:58:16.048Z,2.47
2023-03-27T22:00:42.184Z,2.40
2023-03-27T22:03:08.341Z,2.50
2023-03-27T22:05:34.487Z,2.64
2023-03-27T22:08:00.677Z,2.63
2023-03-27T22:10:26.861Z,2.68
2023-03-27T22:12:53.059Z,2.66
2023-03-27T22:15:19.228Z,2.55
2023-03-27T22:17:45.352Z,2.53
2023-03-27T22:20:11.576Z,2.44
2023-03-27T22:22:37.725Z,2.39
2023-03-27T22:25:03.935Z,2.29
2023-03-27T22:27:30.109Z,2.25
2023-03-27T22:29:56.285Z,2.09
2023-03-27T22:32:22.457Z,1.97
2023-03-27T22:34:48.594Z,1.87
2023-03-27T22:37:14.806Z,1.68
2023-03-27T22:39:41.017Z,1.58
2023-03-27T22:42:07.130Z,1.45
2023-03-27T22:44:33.288Z,1.35
2023-03-27T22:46:59.496Z,1.26
2023-03-27T22:49:25.638Z,1.17
2023-03-27T22:51:51.793Z,1.10
2023-03-27T22:54:17.948Z,1.01
2023-03-27T22:56:44.106Z,0.95
2023-03-27T22:59:10.248Z,0.90
2023-03-27T23:01:36.426Z,0.88
2023-03-27T23:04:02.722Z,0.79
2023-03-27T23:06:28.962Z,0.79
2023-03-27T23:08:55.156Z,0.64
2023-03-27T23:11:21.354Z,0.60
2023-03-27T23:13:47.524Z,0.52
2023-03-27T23:16:13.652Z,0.46
2023-03-27T23:18:39.848Z,0.43
2023-03-27T23:21:05.978Z,0.39
2023-03-27T23:23:32.158Z,0.31
2023-03-27T23:25:58.772Z,0.25
2023-03-27T23:28:25.198Z,0.23
2023-03-27T23:30:51.353Z,0.12
2023-03-27T23:33:17.489Z,0.06
2023-03-27T23:35:43.656Z,0.08
2023-03-27T23:38:09.803Z,0.03
2023-03-27T23:40:36.004Z,-0.05
2023-03-27T23:43:02.135Z,-0.06
2023-03-27T23:45:28.259Z,-0.15
2023-03-27T23:47:54.502Z,-0.19
2023-03-27T23:50:20.675Z,-0.22
2023-03-27T23:52:46.853Z,-0.26
2023-03-27T23:55:12.982Z,-0.27
2023-03-27T23:57:39.117Z,-0.34
